createdAt,value
2023-01-23T00:04:08.896Z,1.5
2023-01-23T00:09:16.651Z,1.5
2023-01-23T00:14:24.738Z,1.5
2023-01-23T00:19:32.596Z,1.5
2023-01-23T00:24:40.517Z,1.5
2023-01-23T00:29:48.590Z,1.5
2023-01-23T00:34:56.431Z,1.5
2023-01-23T00:40:04.401Z,1.5
2023-01-23T00:45:12.477Z,1.5
2023-01-23T00:50:20.658Z,1.5
2023-01-23T00:55:28.275Z,1.5
2023-01-23T01:00:36.333Z,1.5
2023-01-23T01:05:44.157Z,1.5
2023-01-23T01:10:52.122Z,1.5
2023-01-23T01:16:00.322Z,1.5
2023-01-23T01:21:08.063Z,1.5
2023-01-23T01:26:15.955Z,1.5
2023-01-23T01:31:24.151Z,1.5
2023-01-23T01:36:31.866Z,1.5
2023-01-23T01:41:39.805Z,1.5
2023-01-23T01:46:47.973Z,1.5
2023-01-23T01:51:55.780Z,1.5
2023-01-23T01:57:03.692Z,1.5
2023-01-23T02:02:12.002Z,1.5
2023-01-23T02:07:19.595Z,1.5
2023-01-23T02:12:27.538Z,1.5
2023-01-23T02:17:35.625Z,1.5
2023-01-23T02:22:43.491Z,1.5
2023-01-23T02:27:51.433Z,1.5
2023-01-23T02:32:59.486Z,1.5
2023-01-23T02:38:07.290Z,1.5
2023-01-23T02:48:23.352Z,1.5
2023-01-23T02:53:31.163Z,1.5
2023-01-23T02:58:39.119Z,1.5
2023-01-23T03:03:47.235Z,1.5
2023-01-23T03:08:55.016Z,1.5
2023-01-23T03:14:02.972Z,1.5
2023-01-23T03:19:11.071Z,1.5
2023-01-23T03:24:18.883Z,1.5
2023-01-23T03:29:26.821Z,1.5
2023-01-23T03:34:34.944Z,1.5
2023-01-23T03:39:42.732Z,1.5
2023-01-23T03:44:50.690Z,1.5
2023-01-23T03:49:58.746Z,1.5
2023-01-23T03:55:06.599Z,1.5
2023-01-23T04:00:14.567Z,1.5
2023-01-23T04:05:22.650Z,1.5
2023-01-23T04:10:30.452Z,1.5
2023-01-23T04:15:38.409Z,1.5
2023-01-23T04:20:46.499Z,1.5
2023-01-23T04:25:54.407Z,1.5
2023-01-23T04:31:02.460Z,1.5
2023-01-23T04:36:10.325Z,1.5
2023-01-23T04:41:18.196Z,1.5
2023-01-23T04:46:26.210Z,1.5
2023-01-23T04:51:34.208Z,1.5
2023-01-23T04:56:42.061Z,1.5
2023-01-23T05:01:49.987Z,1.5
2023-01-23T05:06:58.068Z,1.5
2023-01-23T05:12:06.146Z,1.5
2023-01-23T05:17:13.834Z,1.5
2023-01-23T05:22:21.931Z,1.5
2023-01-23T05:27:29.771Z,1.5
2023-01-23T05:32:37.716Z,1.5
2023-01-23T05:37:43.922Z,1.5
2023-01-23T05:42:51.731Z,1.5
2023-01-23T05:47:59.685Z,1.4
2023-01-23T05:53:07.796Z,1.4
2023-01-23T05:58:16.121Z,1.4
2023-01-23T06:03:23.574Z,1.4
2023-01-23T06:08:31.614Z,1.4
2023-01-23T06:13:39.467Z,1.4
2023-01-23T06:18:47.381Z,1.4
2023-01-23T06:23:55.487Z,1.4
2023-01-23T06:29:03.339Z,1.4
2023-01-23T06:34:11.276Z,1.4
2023-01-23T06:39:19.336Z,1.4
2023-01-23T06:44:27.200Z,1.4
2023-01-23T06:49:35.124Z,1.4
2023-01-23T06:54:43.253Z,1.4
2023-01-23T06:59:51.040Z,1.4
2023-01-23T07:04:58.990Z,1.4
2023-01-23T07:10:07.040Z,1.4
2023-01-23T07:15:14.903Z,1.4
2023-01-23T07:20:23.311Z,1.4
2023-01-23T07:25:30.908Z,1.4
2023-01-23T07:30:38.768Z,1.4
2023-01-23T07:35:46.696Z,1.4
2023-01-23T07:40:54.767Z,1.4
2023-01-23T07:46:02.738Z,1.4
2023-01-23T07:51:10.626Z,1.4
2023-01-23T07:56:18.634Z,1.4
2023-01-23T08:01:26.468Z,1.4
2023-01-23T08:06:34.477Z,1.4
2023-01-23T08:11:42.520Z,1.4
2023-01-23T08:16:50.321Z,1.4
2023-01-23T08:21:58.287Z,1.4
2023-01-23T08:27:06.351Z,1.4
2023-01-23T08:32:14.180Z,1.4
2023-01-23T08:37:22.157Z,1.4
2023-01-23T08:42:30.221Z,1.4
2023-01-23T08:47:38.067Z,1.5
2023-01-23T08:52:46.010Z,1.5
2023-01-23T08:57:54.082Z,1.5
2023-01-23T09:03:01.905Z,1.5
2023-01-23T09:08:09.865Z,1.5
2023-01-23T09:13:17.943Z,1.5
2023-01-23T09:18:25.758Z,1.5
2023-01-23T09:28:41.835Z,1.5
2023-01-23T09:38:57.575Z,1.5
2023-01-23T09:44:05.635Z,1.6
2023-01-23T09:49:13.482Z,1.6
2023-01-23T09:54:21.454Z,1.6
2023-01-23T10:04:37.481Z,1.6
2023-01-23T10:09:43.417Z,1.6
2023-01-23T10:14:49.520Z,1.7
2023-01-23T10:19:55.704Z,1.7
2023-01-23T10:25:03.534Z,1.7
2023-01-23T10:30:09.681Z,1.7
2023-01-23T10:35:15.793Z,1.8
2023-01-23T10:40:22.051Z,1.8
2023-01-23T10:45:27.828Z,1.8
2023-01-23T10:50:35.887Z,1.8
2023-01-23T10:55:41.858Z,1.9
2023-01-23T11:00:49.810Z,1.9
2023-01-23T11:05:57.907Z,1.9
2023-01-23T11:16:11.819Z,1.9
2023-01-23T11:21:17.980Z,2
2023-01-23T11:26:23.929Z,2
2023-01-23T11:31:32.078Z,2
2023-01-23T11:36:38.086Z,2
2023-01-23T11:41:44.028Z,2
2023-01-23T11:46:50.122Z,2.1
2023-01-23T11:51:56.283Z,2.1
2023-01-23T12:02:10.198Z,2.1
2023-01-23T12:07:16.395Z,2.1
2023-01-23T12:12:22.349Z,2.1
2023-01-23T12:17:28.426Z,2.2
2023-01-23T12:22:34.647Z,2.2
2023-01-23T12:27:40.583Z,2.2
2023-01-23T12:32:48.526Z,2.2
2023-01-23T12:37:54.796Z,2.2
2023-01-23T12:43:02.595Z,2.2
2023-01-23T12:48:08.640Z,2.3
2023-01-23T12:53:16.698Z,2.3
2023-01-23T12:58:24.531Z,2.3
2023-01-23T13:03:44.920Z,2.3
2023-01-23T13:08:57.980Z,2.3
2023-01-23T13:13:48.377Z,2.3
2023-01-23T13:18:56.343Z,2.4
2023-01-23T13:24:04.402Z,2.4
2023-01-23T13:29:12.242Z,2.4
2023-01-23T13:34:20.173Z,2.4
2023-01-23T13:39:28.276Z,2.4
2023-01-23T13:44:41.540Z,2.4
2023-01-23T13:49:44.038Z,2.4
2023-01-23T14:00:00.075Z,2.4
2023-01-23T14:05:07.914Z,2.4
2023-01-23T14:10:15.858Z,2.4
2023-01-23T14:15:23.950Z,2.5
2023-01-23T14:20:31.769Z,2.5
2023-01-23T14:25:39.742Z,2.5
2023-01-23T14:30:47.799Z,2.5
2023-01-23T14:35:55.629Z,2.5
2023-01-23T14:41:03.572Z,2.5
2023-01-23T14:46:11.769Z,2.5
2023-01-23T14:51:20.128Z,2.5
2023-01-23T14:56:27.472Z,2.5
2023-01-23T15:01:36.097Z,2.5
2023-01-23T15:06:43.338Z,2.5
2023-01-23T15:11:51.309Z,2.5
2023-01-23T15:16:59.425Z,2.5
2023-01-23T15:22:07.222Z,2.5
2023-01-23T15:27:15.142Z,2.5
2023-01-23T15:32:23.249Z,2.5
2023-01-23T15:37:31.071Z,2.5
2023-01-23T15:42:39.009Z,2.5
2023-01-23T15:47:46.996Z,2.4
2023-01-23T15:52:54.926Z,2.4
2023-01-23T15:58:03.095Z,2.4
2023-01-23T16:03:10.989Z,2.4
2023-01-23T16:08:18.799Z,2.4
2023-01-23T16:13:26.713Z,2.4
2023-01-23T16:18:34.793Z,2.4
2023-01-23T16:23:47.538Z,2.4
2023-01-23T16:28:50.589Z,2.4
2023-01-23T16:33:58.672Z,2.4
2023-01-23T16:39:06.966Z,2.4
2023-01-23T16:44:14.504Z,2.4
2023-01-23T16:49:22.502Z,2.4
2023-01-23T16:54:30.336Z,2.3
2023-01-23T16:59:38.312Z,2.3
2023-01-23T17:04:46.373Z,2.3
2023-01-23T17:09:54.194Z,2.3
2023-01-23T17:15:02.160Z,2.3
2023-01-23T17:20:10.218Z,2.3
2023-01-23T17:25:18.085Z,2.3
2023-01-23T17:30:26.038Z,2.3
2023-01-23T17:35:34.141Z,2.3
2023-01-23T17:40:41.913Z,2.3
2023-01-23T17:45:49.928Z,2.3
2023-01-23T17:50:57.957Z,2.3
2023-01-23T17:56:05.796Z,2.3
2023-01-23T18:01:13.781Z,2.3
2023-01-23T18:06:19.959Z,2.3
2023-01-23T18:11:25.940Z,2.3
2023-01-23T18:16:31.981Z,2.3
2023-01-23T18:21:38.155Z,2.3
2023-01-23T18:26:44.137Z,2.3
2023-01-23T18:31:50.352Z,2.3
2023-01-23T18:36:56.431Z,2.3
2023-01-23T18:42:04.219Z,2.2
2023-01-23T18:47:10.279Z,2.2
2023-01-23T18:52:16.516Z,2.2
2023-01-23T18:57:24.295Z,2.2
2023-01-23T19:02:32.285Z,2.2
2023-01-23T19:07:38.460Z,2.2
2023-01-23T19:12:44.418Z,2.2
2023-01-23T19:17:50.501Z,2.2
2023-01-23T19:22:56.670Z,2.2
2023-01-23T19:28:02.678Z,2.2
2023-01-23T19:33:08.705Z,2.2
2023-01-23T19:38:14.986Z,2.2
2023-01-23T19:43:22.739Z,2.2
2023-01-23T19:48:30.906Z,2.2
2023-01-23T19:53:38.719Z,2.2
2023-01-23T19:58:46.609Z,2.2
2023-01-23T20:03:54.579Z,2.2
2023-01-23T20:14:10.584Z,2.2
2023-01-23T20:19:18.433Z,2.2
2023-01-23T20:24:26.478Z,2.2
2023-01-23T20:29:34.347Z,2.2
2023-01-23T20:34:42.282Z,2.2
2023-01-23T20:39:50.226Z,2.2
2023-01-23T20:44:58.285Z,2.2
2023-01-23T20:50:06.168Z,2.2
2023-01-23T20:55:14.097Z,2.2
2023-01-23T21:00:22.169Z,2.2
2023-01-23T21:05:29.991Z,2.2
2023-01-23T21:10:37.959Z,2.1
2023-01-23T21:15:46.088Z,2.1
2023-01-23T21:20:53.848Z,2.1
2023-01-23T21:26:01.795Z,2.1
2023-01-23T21:31:09.886Z,2.1
2023-01-23T21:36:17.704Z,2.1
2023-01-23T21:41:25.657Z,2.1
2023-01-23T21:46:33.824Z,2.1
2023-01-23T21:51:41.579Z,2.1
2023-01-23T21:56:49.540Z,2.1
2023-01-23T22:01:57.617Z,2.1
2023-01-23T22:07:05.414Z,2.1
2023-01-23T22:12:13.368Z,2.1
2023-01-23T22:17:21.435Z,2.1
2023-01-23T22:22:29.264Z,2.1
2023-01-23T22:27:37.228Z,2.1
2023-01-23T22:32:45.351Z,2.1
2023-01-23T22:37:53.117Z,2.1
2023-01-23T22:48:09.179Z,2.1
2023-01-23T22:53:17.032Z,2.1
2023-01-23T22:58:24.972Z,2.1
2023-01-23T23:03:32.962Z,2.1
2023-01-23T23:08:40.874Z,2.1
2023-01-23T23:13:48.814Z,2.1
2023-01-23T23:18:56.922Z,2.1
2023-01-23T23:24:04.816Z,2.1
2023-01-23T23:29:10.818Z,2.1
2023-01-23T23:34:18.858Z,2.1
2023-01-23T23:39:24.824Z,2.1
2023-01-23T23:44:32.771Z,2.1
2023-01-23T23:49:38.973Z,2.1
2023-01-23T23:54:44.945Z,2.1
2023-01-23T23:59:51.009Z,2.1
